FNUE

Luena Airport

Luena, Angola
TAF FNUE 242245Z 2500/2512 VRB03KT 9000 SCT025 TEMPO 2505/2510 30010KT CAVOK BECMG 2510/2512 9999 SCT020 FEW025TCU
Issued Valid From Valid To
Sep-24 @ 22:45 UTC
(3 hours ago)
Sep-25 @ 00:00 UTC
(an hour ago)
Sep-25 @ 12:00 UTC
(in 11 hours)
Sep-25 @ 00:00 to Sep-25 @ 10:00
TAF FNUE 242245Z 2500/2512 VRB03KT 9000 SCT025
Wind Visibility Clouds
Variable at 3 knots 8,996 meters
  • Scattered at 2,500' AGL
Temporary Sep-25 @ 05:00 to Sep-25 @ 10:00
TEMPO 2505/2510 30010KT CAVOK
Wind Visibility Clouds Conditions
300° at 10 knots 10,000+ meters
  • No significant clouds
Becoming Sep-25 @ 10:00 to Sep-25 @ 12:00
BECMG 2510/2512 9999 SCT020 FEW025TCU
Wind Visibility Clouds
Variable at 3 knots 10,000+ meters
  • Scattered at 2,000' AGL
  • Few at 2,500' AGL
TAF FNUE 242245Z 2500/2512 VRB03KT 9000 SCT025 TEMPO 2505/2510 30010KT CAVOK BECMG 2510/2512 9999 SCT020 FEW025TCU
Issued Sep-24 @ 22:45 UTC
(3 hours ago)
Valid From Sep-25 @ 00:00 UTC
(an hour ago)
Valid To Sep-25 @ 12:00 UTC
(in 11 hours)
Sep-25 @ 00:00 - Sep-25 @ 10:00
Wind Visibility
Variable at 3 knots 8,996 meters
Clouds
  • Scattered at 2,500' AGL
Temporary Sep-25 @ 05:00 - Sep-25 @ 10:00
Wind Visibility
300° at 10 knots 10,000+ meters
Clouds
  • No significant clouds
Conditions
Becoming Sep-25 @ 10:00 - Sep-25 @ 12:00
Wind Visibility
Variable at 3 knots 10,000+ meters
Clouds
  • Scattered at 2,000' AGL
  • Few at 2,500' AGL